Time;durP1;ratioP1;P1;durP2;ratioP2;P2;SDS_P1;SDS_P2;PMS_P1;PMS_P2;Temp;Humidity;BMP_temperature;BMP_pressure;BME280_temperature;BME280_humidity;BME280_pressure;Samples;Min_cycle;Max_cycle;Signal;HPM_P1;HPM_P2
2021/03/17 00:02:06;;;;;;;1.75;1.05;;;20.60;45.10;;;;;;6195929;28;20026;-67
2021/03/17 00:05:07;;;;;;;1.45;1.00;;;20.60;45.20;;;;;;6195282;28;20029;-67
2021/03/17 00:08:08;;;;;;;0.98;0.82;;;20.60;45.10;;;;;;6199948;28;20072;-67
2021/03/17 00:11:08;;;;;;;2.13;1.10;;;20.60;45.20;;;;;;6195276;28;20481;-68
2021/03/17 00:14:09;;;;;;;1.23;0.88;;;20.50;45.00;;;;;;6195420;28;20053;-67
2021/03/17 00:17:10;;;;;;;1.08;0.80;;;20.60;45.10;;;;;;6194466;28;20200;-68
2021/03/17 00:20:10;;;;;;;1.40;1.00;;;20.60;45.10;;;;;;6195370;28;20083;-68
2021/03/17 00:23:11;;;;;;;1.67;1.00;;;20.60;45.10;;;;;;6193167;28;20026;-67
2021/03/17 00:26:12;;;;;;;1.25;0.90;;;20.60;45.10;;;;;;6194187;28;20565;-67
2021/03/17 00:29:12;;;;;;;1.60;1.08;;;20.60;45.10;;;;;;6201612;28;20022;-67
2021/03/17 00:32:13;;;;;;;1.75;1.17;;;20.60;45.20;;;;;;6218666;28;20026;-67
2021/03/17 00:35:13;;;;;;;1.70;1.00;;;20.60;45.20;;;;;;6202763;28;20478;-68
2021/03/17 00:38:14;;;;;;;1.88;1.17;;;20.50;45.10;;;;;;6194923;28;20050;-67
2021/03/17 00:41:14;;;;;;;1.60;1.10;;;20.50;45.00;;;;;;6195346;28;20058;-67
2021/03/17 00:44:15;;;;;;;1.10;0.80;;;20.50;45.20;;;;;;6195113;28;20477;-67
2021/03/17 00:47:16;;;;;;;1.35;0.85;;;20.50;45.10;;;;;;6194614;28;20524;-68
2021/03/17 00:50:18;;;;;;;2.25;1.23;;;20.50;45.10;;;;;;6202975;28;20038;-67
2021/03/17 00:53:19;;;;;;;1.55;1.02;;;20.50;45.20;;;;;;6214921;28;20038;-68
2021/03/17 00:56:19;;;;;;;1.27;0.90;;;20.50;45.10;;;;;;6200041;28;20045;-67
2021/03/17 00:59:20;;;;;;;1.65;0.90;;;20.50;45.10;;;;;;6200108;28;20097;-68
2021/03/17 01:02:20;;;;;;;4.82;1.48;;;20.50;45.10;;;;;;6200202;28;20049;-67
2021/03/17 01:05:21;;;;;;;1.13;0.93;;;20.50;45.10;;;;;;6199429;28;20084;-67
2021/03/17 01:08:21;;;;;;;1.27;0.90;;;20.50;45.10;;;;;;6200055;28;20027;-68
2021/03/17 01:11:22;;;;;;;1.70;1.02;;;20.50;45.10;;;;;;6208700;28;20095;-67
2021/03/17 01:14:22;;;;;;;2.40;1.10;;;20.50;45.10;;;;;;6219406;28;20362;-68
2021/03/17 01:17:23;;;;;;;1.63;1.00;;;20.50;45.10;;;;;;6199367;28;20050;-67
2021/03/17 01:20:26;;;;;;;1.10;0.85;;;20.50;45.10;;;;;;6199401;28;20033;-67
2021/03/17 01:23:26;;;;;;;1.25;0.93;;;20.50;45.10;;;;;;6197480;28;20034;-67
2021/03/17 01:26:27;;;;;;;1.13;1.00;;;20.50;45.10;;;;;;6199670;28;20035;-67
2021/03/17 01:29:27;;;;;;;1.15;0.93;;;20.50;45.10;;;;;;6199346;28;20030;-68
2021/03/17 01:32:28;;;;;;;1.00;0.88;;;20.50;45.10;;;;;;6199383;28;20401;-68
2021/03/17 01:35:28;;;;;;;1.30;0.98;;;20.50;45.20;;;;;;6199227;28;20034;-67
2021/03/17 01:38:29;;;;;;;1.70;1.00;;;20.50;45.20;;;;;;6199142;28;20478;-68
2021/03/17 01:41:29;;;;;;;1.20;1.00;;;20.50;45.10;;;;;;6198879;28;20081;-68
2021/03/17 01:44:30;;;;;;;1.88;1.13;;;20.50;45.20;;;;;;6198665;28;20477;-67
2021/03/17 01:47:30;;;;;;;1.63;1.02;;;20.50;45.20;;;;;;6198960;28;20022;-68
2021/03/17 01:50:40;;;;;;;0.88;0.80;;;20.50;45.10;;;;;;6198546;28;20381;-68
2021/03/17 01:53:41;;;;;;;1.10;0.82;;;20.50;45.10;;;;;;6199146;28;20041;-67
2021/03/17 01:56:41;;;;;;;1.38;1.10;;;20.50;45.20;;;;;;6198504;28;20026;-67
2021/03/17 01:59:42;;;;;;;1.10;0.88;;;20.50;45.10;;;;;;6198070;28;20477;-67
2021/03/17 02:02:50;;;;;;;1.42;1.10;;;20.50;45.20;;;;;;6198852;28;20030;-67
2021/03/17 02:05:51;;;;;;;2.00;1.10;;;20.50;45.10;;;;;;6197862;28;20481;-67
2021/03/17 02:08:51;;;;;;;1.33;0.90;;;20.50;45.10;;;;;;6205409;28;20091;-68
2021/03/17 02:12:28;;;;;;;1.33;1.02;;;20.50;45.10;;;;;;6205601;28;20472;-67
2021/03/17 02:15:43;;;;;;;1.08;0.90;;;20.50;45.20;;;;;;6197939;28;20037;-68
2021/03/17 02:19:05;;;;;;;1.30;0.98;;;20.50;45.20;;;;;;6198421;28;20515;-67
2021/03/17 02:22:14;;;;;;;1.67;0.93;;;20.50;45.10;;;;;;6198026;28;20445;-67
2021/03/17 02:25:41;;;;;;;2.00;0.80;;;20.50;45.10;;;;;;6198238;28;20022;-68
2021/03/17 02:29:03;;;;;;;1.10;0.85;;;20.50;45.20;;;;;;6197932;28;20033;-68
2021/03/17 02:32:37;;;;;;;1.23;0.90;;;20.50;45.20;;;;;;6197960;28;20018;-68
2021/03/17 02:35:39;;;;;;;1.13;0.88;;;20.50;45.20;;;;;;6197817;28;20026;-68
2021/03/17 02:38:48;;;;;;;2.38;1.27;;;20.50;45.20;;;;;;6197706;28;20038;-67
2021/03/17 02:42:10;;;;;;;1.33;1.10;;;20.40;45.10;;;;;;6197641;28;20371;-68
2021/03/17 02:45:16;;;;;;;2.08;1.20;;;20.50;45.20;;;;;;6197526;28;20027;-67
2021/03/17 02:49:05;;;;;;;2.22;1.00;;;20.50;45.10;;;;;;6197380;28;20068;-68
2021/03/17 02:52:06;;;;;;;1.65;1.05;;;20.50;45.10;;;;;;6103495;28;20044;-68
2021/03/17 02:55:08;;;;;;;1.55;1.10;;;20.50;45.10;;;;;;6197386;28;20030;-67
2021/03/17 02:58:10;;;;;;;1.88;1.00;;;20.50;45.20;;;;;;6197279;28;20092;-68
2021/03/17 03:01:15;;;;;;;1.52;0.98;;;20.40;45.10;;;;;;6197337;28;20388;-68
2021/03/17 03:04:16;;;;;;;1.30;0.95;;;20.40;45.10;;;;;;6212737;28;20104;-67
2021/03/17 03:07:17;;;;;;;0.88;0.80;;;20.50;45.20;;;;;;6197429;28;20394;-68
2021/03/17 03:10:20;;;;;;;1.40;1.02;;;20.50;45.10;;;;;;6196953;28;20034;-67
2021/03/17 03:13:24;;;;;;;1.63;0.80;;;20.40;45.20;;;;;;6197016;28;20034;-67
2021/03/17 03:16:25;;;;;;;1.42;0.90;;;20.40;45.20;;;;;;6196467;28;20050;-68
2021/03/17 03:19:30;;;;;;;0.90;0.80;;;20.40;45.10;;;;;;6196821;28;20065;-67
2021/03/17 03:22:31;;;;;;;1.05;0.95;;;20.40;45.10;;;;;;6197003;28;20046;-67
2021/03/17 03:25:33;;;;;;;1.00;0.80;;;20.40;45.10;;;;;;6196978;28;20034;-68
2021/03/17 03:28:36;;;;;;;1.67;1.00;;;20.40;45.00;;;;;;6191401;28;20395;-67
2021/03/17 03:31:37;;;;;;;1.27;0.85;;;20.40;45.20;;;;;;6196708;28;20021;-67
2021/03/17 03:34:37;;;;;;;1.40;0.90;;;20.40;45.10;;;;;;6196592;28;20031;-67
2021/03/17 03:37:38;;;;;;;0.80;0.75;;;20.40;45.10;;;;;;6196497;28;20034;-67
2021/03/17 03:40:40;;;;;;;1.35;0.88;;;20.40;45.10;;;;;;6196500;28;20033;-67
2021/03/17 03:43:41;;;;;;;1.23;1.00;;;20.40;45.10;;;;;;6196164;28;20079;-67
2021/03/17 03:46:41;;;;;;;1.45;0.90;;;20.40;45.10;;;;;;6196467;28;20022;-68
2021/03/17 03:49:42;;;;;;;1.00;0.88;;;20.40;45.20;;;;;;6196073;28;20033;-68
2021/03/17 03:53:02;;;;;;;1.38;1.02;;;20.40;45.10;;;;;;6196009;28;20453;-68
2021/03/17 03:56:12;;;;;;;1.17;0.90;;;20.40;45.10;;;;;;6196402;28;20105;-68
2021/03/17 03:59:21;;;;;;;1.20;0.75;;;20.40;45.10;;;;;;6195938;28;20034;-68
2021/03/17 04:02:26;;;;;;;1.48;1.00;;;20.40;45.20;;;;;;6195873;28;20102;-68
2021/03/17 04:05:36;;;;;;;1.25;0.82;;;20.40;45.20;;;;;;6196016;28;20026;-68
2021/03/17 04:08:40;;;;;;;1.83;0.90;;;20.40;45.20;;;;;;6201256;28;20029;-68
2021/03/17 04:11:43;;;;;;;1.63;0.90;;;20.40;45.20;;;;;;6219840;28;20447;-68
2021/03/17 04:14:48;;;;;;;1.23;0.80;;;20.30;45.10;;;;;;6198928;28;20034;-68
2021/03/17 04:17:53;;;;;;;1.40;1.00;;;20.40;45.30;;;;;;6195497;28;20058;-69
2021/03/17 04:20:57;;;;;;;1.63;0.90;;;20.40;45.30;;;;;;6195300;28;20063;-68
2021/03/17 04:24:02;;;;;;;1.35;0.90;;;20.40;45.20;;;;;;6205614;28;20122;-68
2021/03/17 04:27:03;;;;;;;;;;;20.30;45.20;;;;;;6195926;28;20029;-68
2021/03/17 04:30:06;;;;;;;1.17;0.98;;;20.30;45.20;;;;;;6195330;28;19909;-68
2021/03/17 04:33:07;;;;;;;0.90;0.80;;;20.30;45.30;;;;;;6195435;28;20564;-68
2021/03/17 04:36:13;;;;;;;0.70;0.70;;;20.30;45.20;;;;;;6195316;28;20037;-68
2021/03/17 04:39:15;;;;;;;1.75;1.10;;;20.30;45.10;;;;;;6194764;28;20409;-67
2021/03/17 04:42:16;;;;;;;1.48;0.93;;;20.30;45.10;;;;;;6195301;28;20061;-68
2021/03/17 04:45:17;;;;;;;1.45;0.93;;;20.30;45.20;;;;;;6195233;28;20073;-68
2021/03/17 04:48:19;;;;;;;1.00;0.90;;;20.30;45.20;;;;;;6195178;28;20026;-68
2021/03/17 04:51:22;;;;;;;1.63;1.10;;;20.30;45.10;;;;;;6195394;28;20512;-68
2021/03/17 04:54:22;;;;;;;1.58;1.08;;;20.30;45.20;;;;;;6195056;28;20030;-69
2021/03/17 04:57:27;;;;;;;1.27;0.90;;;20.30;45.20;;;;;;6193315;28;20082;-68
2021/03/17 05:00:39;;;;;;;1.23;0.90;;;20.30;45.30;;;;;;6194885;28;20069;-68
2021/03/17 05:03:42;;;;;;;1.45;0.98;;;20.30;45.20;;;;;;6194977;28;20038;-68
2021/03/17 05:06:46;;;;;;;1.40;0.80;;;20.30;45.20;;;;;;6201341;28;20440;-68
2021/03/17 05:09:47;;;;;;;1.20;0.80;;;20.30;45.20;;;;;;6207845;28;20031;-68
2021/03/17 05:12:49;;;;;;;1.65;1.20;;;20.30;45.20;;;;;;6194813;28;20033;-68
2021/03/17 05:15:50;;;;;;;1.23;0.90;;;20.30;45.20;;;;;;6194127;28;20034;-67
2021/03/17 05:18:51;;;;;;;1.05;0.90;;;20.30;45.20;;;;;;6194695;28;20034;-68
2021/03/17 05:21:52;;;;;;;2.00;1.10;;;20.30;45.00;;;;;;6194745;28;20053;-68
2021/03/17 05:24:54;;;;;;;1.08;0.77;;;20.30;45.20;;;;;;6202067;28;20025;-68
2021/03/17 05:28:03;;;;;;;1.02;0.93;;;20.30;45.00;;;;;;6219580;28;20036;-68
2021/03/17 05:31:06;;;;;;;2.08;1.33;;;20.30;45.00;;;;;;6200238;28;20429;-67
2021/03/17 05:34:06;;;;;;;1.42;0.90;;;20.30;45.10;;;;;;6194143;28;20121;-68
2021/03/17 05:37:07;;;;;;;1.92;1.10;;;20.30;45.00;;;;;;6194656;28;20485;-67
2021/03/17 05:40:11;;;;;;;1.13;0.80;;;20.30;44.90;;;;;;6196370;28;20057;-68
2021/03/17 05:43:13;;;;;;;1.17;0.98;;;20.30;44.90;;;;;;6198039;28;20038;-68
2021/03/17 05:46:14;;;;;;;1.15;0.90;;;20.30;44.90;;;;;;6198918;28;20066;-68
2021/03/17 05:49:18;;;;;;;0.80;0.75;;;20.30;45.10;;;;;;6198844;28;20029;-68
2021/03/17 05:52:19;;;;;;;1.25;0.93;;;20.30;45.00;;;;;;6198615;28;20110;-67
2021/03/17 05:55:20;;;;;;;1.42;1.05;;;20.30;44.90;;;;;;6198640;28;20026;-68
2021/03/17 05:58:22;;;;;;;2.28;1.20;;;20.30;45.10;;;;;;6189385;28;20255;-68
2021/03/17 06:01:22;;;;;;;2.58;1.23;;;20.30;45.00;;;;;;6199132;28;20042;-68
2021/03/17 06:04:27;;;;;;;2.88;1.20;;;20.30;44.80;;;;;;6196033;28;20152;-68
2021/03/17 06:07:40;;;;;;;2.33;1.20;;;20.30;45.00;;;;;;6196391;28;20034;-68
2021/03/17 06:10:41;;;;;;;4.57;1.20;;;20.30;45.10;;;;;;6218307;28;20531;-68
2021/03/17 06:13:50;;;;;;;2.67;1.10;;;20.30;45.10;;;;;;6220697;28;20069;-68
2021/03/17 06:16:59;;;;;;;2.05;1.08;;;20.30;45.20;;;;;;6214921;28;20135;-68
2021/03/17 06:20:04;;;;;;;2.17;1.30;;;20.30;45.20;;;;;;6220892;28;20072;-68
2021/03/17 06:23:06;;;;;;;1.42;1.00;;;20.30;45.20;;;;;;6210294;28;20018;-68
2021/03/17 06:26:06;;;;;;;2.28;1.10;;;20.30;45.30;;;;;;6218372;28;20042;-68
2021/03/17 06:29:07;;;;;;;4.35;1.40;;;20.30;45.30;;;;;;6214113;28;20018;-68
2021/03/17 06:32:10;;;;;;;2.17;1.08;;;20.30;45.30;;;;;;6210987;28;20026;-68
2021/03/17 06:35:24;;;;;;;1.80;1.08;;;20.30;45.30;;;;;;6204776;28;20081;-69
2021/03/17 06:38:24;;;;;;;2.40;1.35;;;20.30;45.30;;;;;;6197357;28;20070;-68
2021/03/17 06:41:25;;;;;;;4.18;1.10;;;20.30;45.30;;;;;;6196207;28;20030;-68
2021/03/17 06:44:28;;;;;;;1.80;1.23;;;20.30;45.30;;;;;;6194285;28;20095;-68
2021/03/17 06:47:28;;;;;;;3.33;1.27;;;20.30;45.30;;;;;;6200271;28;20084;-69
2021/03/17 06:50:29;;;;;;;2.67;1.30;;;20.30;45.30;;;;;;6201165;28;20417;-68
2021/03/17 06:53:52;;;;;;;2.13;1.20;;;20.30;45.30;;;;;;6199948;28;20112;-68
2021/03/17 06:56:53;;;;;;;1.35;1.00;;;20.30;45.30;;;;;;6195978;28;20042;-68
2021/03/17 06:59:53;;;;;;;2.00;1.17;;;20.30;45.30;;;;;;6192279;28;20109;-69
2021/03/17 07:03:13;;;;;;;4.55;1.25;;;20.30;45.40;;;;;;6197403;28;20029;-68
2021/03/17 07:06:15;;;;;;;5.07;1.30;;;20.40;45.60;;;;;;6195380;28;20053;-67
2021/03/17 07:09:21;;;;;;;4.10;1.08;;;20.40;45.80;;;;;;6199653;28;20058;-66
2021/03/17 07:12:30;;;;;;;4.95;1.15;;;20.40;45.50;;;;;;6196674;28;20033;-67
2021/03/17 07:15:33;;;;;;;5.38;1.25;;;20.40;45.40;;;;;;6196687;28;20062;-67
2021/03/17 07:18:33;;;;;;;2.30;1.30;;;20.40;45.40;;;;;;6196386;28;20045;-66
2021/03/17 07:21:39;;;;;;;2.58;1.20;;;20.40;45.40;;;;;;6217095;28;20116;-67
2021/03/17 07:24:42;;;;;;;2.38;1.27;;;20.40;45.40;;;;;;6209047;28;20413;-67
2021/03/17 07:27:56;;;;;;;3.22;1.50;;;20.40;45.40;;;;;;6196248;28;20497;-67
2021/03/17 07:31:13;;;;;;;2.38;1.00;;;20.40;45.50;;;;;;6196296;28;20033;-67
2021/03/17 07:34:19;;;;;;;6.07;1.20;;;20.40;45.60;;;;;;6196134;28;20073;-67
2021/03/17 07:37:25;;;;;;;4.43;1.25;;;20.40;45.70;;;;;;6211710;28;20048;-67
2021/03/17 07:40:25;;;;;;;2.22;1.15;;;20.30;45.50;;;;;;6219818;28;20034;-67
2021/03/17 07:43:26;;;;;;;2.00;1.10;;;20.30;45.50;;;;;;6197585;28;20436;-66
2021/03/17 07:46:27;;;;;;;4.88;1.30;;;20.30;45.70;;;;;;6195746;28;20505;-66
2021/03/17 07:49:29;;;;;;;6.50;1.20;;;20.30;45.70;;;;;;6195959;28;20106;-67
2021/03/17 07:52:31;;;;;;;2.78;1.40;;;20.20;45.70;;;;;;6200637;28;20049;-67
2021/03/17 07:55:33;;;;;;;4.13;1.42;;;20.30;45.80;;;;;;6219820;28;20382;-67
2021/03/17 07:58:35;;;;;;;3.10;1.33;;;20.30;46.00;;;;;;6219221;28;20449;-67
2021/03/17 08:01:36;;;;;;;4.75;0.93;;;20.20;45.90;;;;;;6220203;28;20145;-66
2021/03/17 08:04:36;;;;;;;4.53;1.45;;;20.20;45.90;;;;;;6218899;28;20032;-67
2021/03/17 08:07:37;;;;;;;6.93;1.80;;;20.20;46.00;;;;;;6211242;28;20050;-67
2021/03/17 08:10:41;;;;;;;4.45;2.33;;;20.20;46.20;;;;;;6214740;28;20473;-67
2021/03/17 08:13:44;;;;;;;8.13;3.15;;;20.20;45.40;;;;;;6219798;28;20465;-67
2021/03/17 08:16:45;;;;;;;7.95;3.78;;;20.10;44.20;;;;;;6218729;28;20413;-67
2021/03/17 08:19:45;;;;;;;7.25;3.60;;;20.10;43.60;;;;;;6219512;28;20025;-67
2021/03/17 08:22:48;;;;;;;8.07;4.03;;;20.00;43.20;;;;;;6219201;28;20018;-67
2021/03/17 08:25:48;;;;;;;6.85;3.90;;;20.00;42.30;;;;;;6219145;28;20105;-67
2021/03/17 08:28:54;;;;;;;12.40;4.70;;;20.00;42.30;;;;;;6197596;28;20030;-67
2021/03/17 08:31:54;;;;;;;7.78;4.00;;;20.00;42.70;;;;;;6195297;28;20151;-67
2021/03/17 08:34:57;;;;;;;7.35;3.58;;;20.00;42.60;;;;;;6193971;28;20380;-67
2021/03/17 08:37:57;;;;;;;8.13;3.25;;;20.00;42.70;;;;;;6203464;28;20041;-67
2021/03/17 08:40:58;;;;;;;6.78;2.85;;;20.00;42.80;;;;;;6219031;28;20087;-67
2021/03/17 08:44:13;;;;;;;5.68;3.05;;;20.00;43.10;;;;;;6206853;28;20044;-67
2021/03/17 08:47:16;;;;;;;;;;;20.00;43.30;;;;;;6208407;28;20287;-67
2021/03/17 08:50:22;;;;;;;4.45;2.30;;;20.00;43.40;;;;;;6194651;28;20308;-67
2021/03/17 08:53:39;;;;;;;9.85;3.25;;;20.00;43.30;;;;;;6194236;28;20026;-67
2021/03/17 08:56:47;;;;;;;4.72;2.53;;;20.00;43.40;;;;;;6193865;28;20034;-67
2021/03/17 08:59:59;;;;;;;5.72;2.50;;;20.00;43.50;;;;;;6208310;28;20519;-67
2021/03/17 09:03:00;;;;;;;7.80;2.70;;;20.00;43.50;;;;;;6195311;28;20489;-67
2021/03/17 09:06:24;;;;;;;8.80;2.35;;;20.00;43.70;;;;;;6195406;28;20076;-67
2021/03/17 09:09:25;;;;;;;7.15;3.00;;;20.00;43.70;;;;;;6195059;28;20026;-67
2021/03/17 09:12:25;;;;;;;7.15;2.50;;;20.00;43.80;;;;;;6195319;28;20481;-67
2021/03/17 09:15:26;;;;;;;5.45;2.50;;;20.00;44.00;;;;;;6209386;28;20026;-67
2021/03/17 09:18:26;;;;;;;5.78;2.60;;;20.00;44.10;;;;;;6223804;28;20053;-67
2021/03/17 09:21:32;;;;;;;4.10;1.90;;;20.00;44.10;;;;;;6224686;28;20030;-67
2021/03/17 09:24:34;;;;;;;4.90;2.22;;;20.00;44.30;;;;;;6224041;28;20030;-67
2021/03/17 09:27:46;;;;;;;4.20;1.95;;;20.00;44.30;;;;;;6223688;28;20036;-67
2021/03/17 09:30:55;;;;;;;5.97;2.65;;;20.00;44.30;;;;;;6223857;28;20562;-67
2021/03/17 09:33:56;;;;;;;7.25;2.08;;;20.00;43.90;;;;;;6223881;28;20084;-67
2021/03/17 09:37:04;;;;;;;3.95;2.08;;;20.00;44.10;;;;;;6217617;28;20031;-69
2021/03/17 09:40:06;;;;;;;6.57;2.58;;;20.00;44.20;;;;;;6199496;28;20117;-67
2021/03/17 09:43:32;;;;;;;6.70;2.38;;;20.00;44.40;;;;;;6199742;28;20039;-67
2021/03/17 09:46:41;;;;;;;6.97;2.03;;;20.00;44.60;;;;;;6197241;28;20088;-67
2021/03/17 09:49:42;;;;;;;4.70;2.38;;;20.00;44.70;;;;;;6203112;28;20033;-67
2021/03/17 09:52:44;;;;;;;4.93;2.15;;;20.00;44.70;;;;;;6198919;28;20030;-67
2021/03/17 09:55:44;;;;;;;4.20;2.13;;;20.00;44.80;;;;;;6199123;28;20028;-67
2021/03/17 09:58:45;;;;;;;2.90;1.77;;;20.00;44.90;;;;;;6198924;28;20125;-67
2021/03/17 10:02:21;;;;;;;4.95;2.25;;;20.00;45.00;;;;;;6215578;28;20036;-67
2021/03/17 10:05:21;;;;;;;5.28;2.20;;;20.00;44.80;;;;;;6197894;28;20030;-67
2021/03/17 10:08:22;;;;;;;3.65;2.10;;;20.00;45.00;;;;;;6207506;28;20425;-66
2021/03/17 10:11:22;;;;;;;3.92;2.00;;;20.00;44.80;;;;;;6199453;28;20328;-67
2021/03/17 10:14:25;;;;;;;3.33;1.65;;;20.00;45.10;;;;;;6199214;28;20110;-67
2021/03/17 10:17:28;;;;;;;3.13;1.90;;;20.00;45.20;;;;;;6216193;28;20489;-67
2021/03/17 10:20:28;;;;;;;3.63;1.67;;;20.00;45.00;;;;;;6203543;28;20021;-67
2021/03/17 10:23:29;;;;;;;4.05;2.08;;;20.00;45.20;;;;;;6222598;28;20029;-67
2021/03/17 10:26:29;;;;;;;2.72;1.67;;;20.00;45.10;;;;;;6205401;28;20028;-67
2021/03/17 10:29:30;;;;;;;2.80;1.70;;;20.00;45.30;;;;;;6197460;28;20029;-67
2021/03/17 10:32:31;;;;;;;4.35;1.90;;;20.00;45.30;;;;;;6196756;28;20092;-67
2021/03/17 10:35:32;;;;;;;3.17;1.48;;;20.00;45.30;;;;;;6193495;28;20030;-67
2021/03/17 10:38:33;;;;;;;2.75;1.63;;;20.00;45.30;;;;;;6212617;28;20046;-67
2021/03/17 10:41:41;;;;;;;1.92;1.60;;;20.00;45.40;;;;;;6197178;28;20027;-68
2021/03/17 10:44:42;;;;;;;3.90;1.58;;;20.00;45.30;;;;;;6197671;28;20438;-67
2021/03/17 10:47:44;;;;;;;4.80;1.50;;;20.00;45.30;;;;;;6197667;28;20035;-67
2021/03/17 10:50:46;;;;;;;3.28;1.55;;;20.00;45.40;;;;;;6198312;28;20490;-67
2021/03/17 10:53:46;;;;;;;2.35;1.60;;;20.00;45.60;;;;;;6194224;28;20396;-68
2021/03/17 10:56:51;;;;;;;4.95;1.67;;;20.00;45.70;;;;;;6221147;28;20117;-68
2021/03/17 10:59:51;;;;;;;4.25;1.67;;;20.10;46.00;;;;;;6202961;28;20031;-68
2021/03/17 11:02:54;;;;;;;10.07;1.75;;;20.20;46.10;;;;;;6197592;28;20018;-67
2021/03/17 11:06:22;;;;;;;6.22;1.52;;;20.20;45.60;;;;;;6221345;28;20029;-66
2021/03/17 11:09:23;;;;;;;3.33;1.73;;;20.10;45.60;;;;;;6220862;28;20024;-67
2021/03/17 11:12:29;;;;;;;3.65;1.52;;;20.10;45.60;;;;;;6210597;28;20102;-67
2021/03/17 11:15:31;;;;;;;6.93;1.70;;;20.10;45.80;;;;;;6197973;28;20085;-67
2021/03/17 11:18:31;;;;;;;8.32;1.63;;;20.10;46.30;;;;;;6220424;28;20078;-67
2021/03/17 11:21:34;;;;;;;4.22;1.45;;;20.10;45.80;;;;;;6221198;28;20098;-67
2021/03/17 11:24:35;;;;;;;4.60;1.40;;;20.10;45.60;;;;;;6217528;28;20026;-67
2021/03/17 11:27:35;;;;;;;2.40;1.27;;;20.10;45.70;;;;;;6210696;28;20053;-66
2021/03/17 11:30:58;;;;;;;2.63;1.52;;;20.10;45.70;;;;;;6198518;28;20065;-67
2021/03/17 11:33:59;;;;;;;6.85;1.35;;;20.10;45.70;;;;;;6185769;28;20042;-67
2021/03/17 11:37:00;;;;;;;1.88;1.20;;;20.10;45.60;;;;;;6206100;28;20022;-66
2021/03/17 11:40:00;;;;;;;2.88;1.27;;;20.00;45.70;;;;;;6201794;28;20436;-66
2021/03/17 11:43:23;;;;;;;2.33;1.35;;;20.00;45.70;;;;;;6220774;28;20022;-68
2021/03/17 11:46:23;;;;;;;4.53;1.73;;;20.00;45.80;;;;;;6212418;28;20033;-67
2021/03/17 11:49:24;;;;;;;2.85;1.20;;;20.00;45.80;;;;;;6196314;28;20026;-67
2021/03/17 11:52:24;;;;;;;7.82;1.35;;;20.00;45.70;;;;;;6196444;28;20034;-67
2021/03/17 11:55:25;;;;;;;2.35;1.42;;;20.00;45.80;;;;;;6220010;28;20025;-67
2021/03/17 11:58:26;;;;;;;3.85;1.30;;;20.00;45.70;;;;;;6208055;28;20114;-67
2021/03/17 12:01:27;;;;;;;2.40;1.38;;;20.00;45.80;;;;;;6202870;28;20057;-67
2021/03/17 12:04:27;;;;;;;3.88;1.48;;;20.00;45.70;;;;;;6196446;28;20035;-67
2021/03/17 12:07:28;;;;;;;1.88;1.10;;;20.00;45.70;;;;;;6216881;28;20123;-67
2021/03/17 12:10:29;;;;;;;2.47;1.38;;;20.00;45.70;;;;;;6219782;28;20057;-67
2021/03/17 12:13:29;;;;;;;5.15;1.30;;;20.00;45.70;;;;;;6220456;28;20436;-67
2021/03/17 12:16:30;;;;;;;1.40;1.05;;;20.00;45.70;;;;;;6219591;28;20064;-67
2021/03/17 12:19:31;;;;;;;1.75;1.10;;;20.00;45.80;;;;;;6198925;28;20389;-67
2021/03/17 12:22:31;;;;;;;1.95;1.08;;;20.00;45.70;;;;;;6200826;28;20098;-67
2021/03/17 12:25:32;;;;;;;1.80;1.20;;;20.00;45.60;;;;;;6197959;28;20402;-67
2021/03/17 12:28:32;;;;;;;1.45;1.02;;;20.00;45.60;;;;;;6219264;28;20032;-67
2021/03/17 12:31:33;;;;;;;2.85;1.40;;;20.00;45.70;;;;;;6200501;28;20038;-67
2021/03/17 12:34:34;;;;;;;1.92;1.08;;;20.00;45.70;;;;;;6207194;28;20549;-67
2021/03/17 12:37:35;;;;;;;1.83;1.02;;;20.00;45.70;;;;;;6202202;28;20038;-67
2021/03/17 12:40:36;;;;;;;1.58;1.10;;;20.00;45.70;;;;;;6195642;28;20026;-67
2021/03/17 12:43:36;;;;;;;1.50;1.20;;;20.00;45.70;;;;;;6201458;28;20456;-67
2021/03/17 12:46:37;;;;;;;1.75;1.13;;;20.00;45.70;;;;;;6206808;28;20501;-67
2021/03/17 12:49:38;;;;;;;2.35;1.30;;;20.00;45.80;;;;;;6199661;28;20037;-66
2021/03/17 12:52:38;;;;;;;1.65;0.93;;;20.00;45.80;;;;;;6199825;28;20026;-67
2021/03/17 12:55:39;;;;;;;1.40;0.98;;;20.00;45.80;;;;;;6207924;28;20053;-67
2021/03/17 12:58:40;;;;;;;1.67;1.20;;;20.00;45.80;;;;;;6219078;28;20053;-67
2021/03/17 13:01:40;;;;;;;1.17;1.00;;;20.00;45.80;;;;;;6219324;28;20032;-67
2021/03/17 13:04:41;;;;;;;1.58;1.05;;;20.00;45.80;;;;;;6203668;28;20026;-67
2021/03/17 13:07:42;;;;;;;1.42;1.00;;;20.00;45.90;;;;;;6211294;28;20380;-67
2021/03/17 13:10:42;;;;;;;2.60;1.20;;;20.00;45.90;;;;;;6219336;28;20156;-67
2021/03/17 13:13:43;;;;;;;1.33;0.90;;;20.00;45.90;;;;;;6200590;28;20050;-67
2021/03/17 13:16:43;;;;;;;1.50;0.98;;;20.00;46.00;;;;;;6204609;28;20054;-67
2021/03/17 13:19:44;;;;;;;1.13;0.93;;;20.00;45.90;;;;;;6194325;28;20042;-66
2021/03/17 13:22:47;;;;;;;1.70;1.20;;;20.00;46.00;;;;;;6194762;28;20022;-67
2021/03/17 13:25:47;;;;;;;1.08;0.82;;;20.00;45.90;;;;;;6194466;28;20054;-66
2021/03/17 13:28:48;;;;;;;2.75;1.20;;;20.00;46.00;;;;;;6194214;28;20037;-67
2021/03/17 13:31:49;;;;;;;1.15;0.82;;;20.00;46.00;;;;;;6194757;28;20038;-67
2021/03/17 13:34:50;;;;;;;1.00;0.70;;;20.00;46.20;;;;;;6207904;28;20054;-67
2021/03/17 13:37:51;;;;;;;1.85;1.02;;;20.00;46.20;;;;;;6213326;28;20049;-67
2021/03/17 13:40:52;;;;;;;1.52;1.10;;;20.00;46.20;;;;;;6209406;28;20485;-67
2021/03/17 13:43:53;;;;;;;2.08;1.02;;;20.00;46.20;;;;;;6205883;28;20038;-66
2021/03/17 13:46:53;;;;;;;2.92;1.30;;;20.00;46.20;;;;;;6194600;28;20027;-67
2021/03/17 13:49:54;;;;;;;1.40;0.98;;;20.00;46.20;;;;;;6194441;28;20102;-67
2021/03/17 13:52:56;;;;;;;1.65;1.10;;;20.00;46.20;;;;;;6202497;28;20033;-67
2021/03/17 13:56:00;;;;;;;2.20;1.40;;;20.00;46.20;;;;;;6217779;28;20105;-67
2021/03/17 13:59:01;;;;;;;1.40;0.98;;;20.00;46.30;;;;;;6191119;28;20039;-67
2021/03/17 14:02:01;;;;;;;2.65;1.20;;;20.00;46.30;;;;;;6196452;28;20058;-66
2021/03/17 14:05:04;;;;;;;1.45;0.98;;;20.00;46.30;;;;;;6198789;28;20109;-67
2021/03/17 14:08:05;;;;;;;1.55;1.20;;;20.00;46.40;;;;;;6198423;28;20034;-66
2021/03/17 14:11:05;;;;;;;1.33;1.02;;;20.00;46.30;;;;;;6191576;28;20042;-67
2021/03/17 14:14:06;;;;;;;5.97;1.00;;;20.10;46.30;;;;;;6221046;28;20033;-67
2021/03/17 14:17:06;;;;;;;3.17;1.15;;;20.10;46.50;;;;;;6221964;28;20057;-67
2021/03/17 14:20:09;;;;;;;1.77;0.95;;;20.10;46.40;;;;;;6196502;28;20089;-67
2021/03/17 14:23:10;;;;;;;3.28;0.90;;;20.10;46.20;;;;;;6195081;28;20057;-67
2021/03/17 14:26:11;;;;;;;2.03;1.17;;;20.20;46.10;;;;;;6198587;28;20030;-67
2021/03/17 14:29:11;;;;;;;2.13;1.08;;;20.20;46.00;;;;;;6207307;28;20045;-67
2021/03/17 14:32:12;;;;;;;1.15;1.00;;;20.20;45.90;;;;;;6197509;28;20117;-67
2021/03/17 14:35:13;;;;;;;1.98;0.90;;;20.30;45.90;;;;;;6209786;28;20121;-68
2021/03/17 14:38:14;;;;;;;1.50;0.90;;;20.30;45.90;;;;;;6198524;28;20065;-68
2021/03/17 14:41:14;;;;;;;1.17;0.80;;;20.40;45.50;;;;;;6199429;28;20441;-67
2021/03/17 14:44:15;;;;;;;1.77;1.05;;;20.50;45.70;;;;;;6201762;28;20041;-68
2021/03/17 14:47:15;;;;;;;0.80;0.80;;;20.60;45.40;;;;;;6221640;28;20018;-67
2021/03/17 14:50:16;;;;;;;4.53;1.00;;;20.50;46.30;;;;;;6221982;28;20175;-69
2021/03/17 14:53:17;;;;;;;2.70;1.00;;;20.50;45.80;;;;;;6197890;28;20042;-68
2021/03/17 14:56:18;;;;;;;4.78;1.10;;;20.50;45.70;;;;;;6220242;28;20104;-67
2021/03/17 14:59:18;;;;;;;2.80;0.93;;;20.40;45.70;;;;;;6201325;28;20081;-68
2021/03/17 15:02:19;;;;;;;2.20;0.90;;;20.40;45.80;;;;;;6213533;28;20693;-68
2021/03/17 15:05:20;;;;;;;0.68;0.68;;;20.40;45.80;;;;;;6221638;28;20219;-67
2021/03/17 15:08:20;;;;;;;0.90;0.70;;;20.40;45.80;;;;;;6221658;28;20029;-67
2021/03/17 15:11:21;;;;;;;1.20;0.90;;;20.40;45.80;;;;;;6208646;28;20096;-68
2021/03/17 15:14:23;;;;;;;2.05;1.10;;;20.40;45.80;;;;;;6197468;28;20151;-67
2021/03/17 15:17:23;;;;;;;1.40;1.13;;;20.40;45.80;;;;;;6200976;28;20528;-67
2021/03/17 15:20:24;;;;;;;5.07;1.20;;;20.40;45.80;;;;;;6210639;28;20022;-67
2021/03/17 15:23:26;;;;;;;3.53;0.90;;;20.40;45.80;;;;;;6179842;28;20081;-67
2021/03/17 15:26:27;;;;;;;8.63;0.82;;;20.40;45.80;;;;;;6202590;28;20044;-67
2021/03/17 15:29:28;;;;;;;2.60;1.00;;;20.30;45.80;;;;;;6203642;28;20213;-67
2021/03/17 15:32:29;;;;;;;3.10;0.70;;;20.40;45.90;;;;;;6211028;28;20026;-68
2021/03/17 15:35:29;;;;;;;2.40;1.08;;;20.40;45.80;;;;;;6214724;28;20022;-67
2021/03/17 15:38:30;;;;;;;1.95;1.08;;;20.50;46.00;;;;;;6196717;28;20038;-67
2021/03/17 15:41:30;;;;;;;3.08;1.10;;;20.60;45.80;;;;;;6192122;28;20097;-69
2021/03/17 15:44:31;;;;;;;1.42;0.90;;;20.60;45.70;;;;;;6196610;28;20025;-67
2021/03/17 15:47:32;;;;;;;1.95;0.90;;;20.50;45.60;;;;;;6195360;28;20423;-67
2021/03/17 15:50:40;;;;;;;1.70;1.05;;;20.50;45.80;;;;;;6200905;28;20030;-68
2021/03/17 15:53:40;;;;;;;1.92;0.80;;;20.50;45.80;;;;;;6198374;28;20054;-69
2021/03/17 15:56:41;;;;;;;5.45;1.10;;;20.40;46.10;;;;;;6195349;28;20408;-65